createdAt,value
2018-08-04T00:03:00.868Z,25.10
2018-08-04T00:07:56.016Z,25.20
2018-08-04T00:13:07.218Z,25.00
2018-08-04T00:18:32.052Z,24.90
2018-08-04T00:23:56.711Z,24.80
2018-08-04T00:29:20.361Z,24.70
2018-08-04T00:34:23.068Z,24.60
2018-08-04T00:39:18.158Z,24.50
2018-08-04T00:44:13.671Z,24.40
2018-08-04T00:54:10.549Z,24.40
2018-08-04T00:59:06.181Z,24.40
2018-08-04T01:04:01.164Z,24.40
2018-08-04T01:08:56.725Z,24.30
2018-08-04T01:13:51.904Z,24.30
2018-08-04T01:18:54.364Z,24.30
2018-08-04T01:23:49.555Z,24.30
2018-08-04T01:28:44.925Z,24.20
2018-08-04T01:33:39.889Z,24.20
2018-08-04T01:38:35.603Z,24.10
2018-08-04T01:43:30.924Z,24.10
2018-08-04T01:48:25.881Z,24.10
2018-08-04T01:53:21.263Z,24.00
2018-08-04T01:58:16.449Z,23.90
2018-08-04T02:03:19.206Z,23.70
2018-08-04T02:08:14.310Z,23.70
2018-08-04T02:13:09.528Z,23.60
2018-08-04T02:18:05.982Z,23.60
2018-08-04T02:23:00.981Z,23.50
2018-08-04T02:32:51.654Z,23.40
2018-08-04T02:37:46.699Z,23.30
2018-08-04T02:42:43.368Z,23.30
2018-08-04T02:47:38.749Z,23.20
2018-08-04T02:52:34.398Z,23.20
2018-08-04T02:57:29.609Z,23.10
2018-08-04T03:02:24.701Z,22.90
2018-08-04T03:07:20.357Z,22.80
2018-08-04T03:12:15.508Z,22.80
2018-08-04T03:17:10.715Z,22.80
2018-08-04T03:22:06.968Z,22.70
2018-08-04T03:27:03.951Z,22.60
2018-08-04T03:31:58.904Z,22.50
2018-08-04T03:36:55.713Z,22.50
2018-08-04T03:41:50.956Z,22.50
2018-08-04T03:46:46.546Z,22.50
2018-08-04T03:51:41.774Z,22.50
2018-08-04T03:56:37.472Z,22.50
2018-08-04T04:01:32.578Z,22.60
2018-08-04T04:06:27.766Z,22.60
2018-08-04T04:11:22.957Z,22.50
2018-08-04T04:16:18.194Z,22.60
2018-08-04T04:21:13.472Z,22.70
2018-08-04T04:26:09.765Z,23.00
2018-08-04T04:31:06.524Z,23.00
2018-08-04T04:36:02.586Z,23.50
2018-08-04T04:40:57.790Z,24.60
2018-08-04T04:45:53.195Z,25.80
2018-08-04T04:50:48.613Z,26.50
2018-08-04T04:55:44.273Z,27.60
2018-08-04T05:00:40.378Z,28.20
2018-08-04T05:05:35.670Z,29.20
2018-08-04T05:10:30.853Z,29.80
2018-08-04T05:15:26.035Z,29.60
2018-08-04T05:20:21.236Z,29.20
2018-08-04T05:25:16.510Z,28.90
2018-08-04T05:30:11.845Z,28.70
2018-08-04T05:40:04.677Z,27.10
2018-08-04T05:45:00.544Z,28.60
2018-08-04T05:49:55.804Z,29.90
2018-08-04T05:55:07.485Z,29.70
2018-08-04T06:00:03.477Z,30.50
2018-08-04T06:04:59.265Z,32.00
2018-08-04T06:09:54.975Z,31.30
2018-08-04T06:14:50.891Z,33.40
2018-08-04T06:19:46.246Z,35.50
2018-08-04T06:24:41.605Z,36.30
2018-08-04T06:34:31.569Z,37.00
2018-08-04T06:39:26.780Z,35.80
2018-08-04T06:44:22.506Z,34.30
2018-08-04T06:49:17.812Z,36.60
2018-08-04T06:54:13.410Z,35.30
2018-08-04T06:59:09.215Z,35.90
2018-08-04T07:04:12.106Z,34.10
2018-08-04T07:09:09.260Z,33.70
2018-08-04T07:19:00.188Z,32.60
2018-08-04T07:23:55.443Z,32.10
2018-08-04T07:28:58.362Z,32.90
2018-08-04T07:33:53.918Z,33.80
2018-08-04T07:38:50.229Z,35.10
2018-08-04T07:43:45.751Z,35.70
2018-08-04T07:48:40.874Z,35.60
2018-08-04T07:53:43.349Z,35.30
2018-08-04T07:58:38.898Z,36.10
2018-08-04T08:03:50.179Z,38.20
2018-08-04T08:08:54.018Z,39.80
2018-08-04T08:13:49.253Z,40.10
2018-08-04T08:18:44.824Z,39.30
2018-08-04T08:28:41.938Z,40.30
2018-08-04T08:33:37.807Z,41.80
2018-08-04T08:38:32.959Z,42.70
2018-08-04T08:43:28.843Z,42.90
2018-08-04T08:48:24.276Z,42.80
2018-08-04T08:53:27.832Z,43.10
2018-08-04T08:58:23.140Z,45.70
2018-08-04T09:03:18.283Z,46.90
2018-08-04T09:08:13.514Z,44.90
2018-08-04T09:13:09.387Z,45.20
2018-08-04T09:18:13.164Z,44.30
2018-08-04T09:23:08.412Z,44.50
2018-08-04T09:28:04.548Z,47.10
2018-08-04T09:32:59.979Z,46.40
2018-08-04T09:37:55.045Z,44.40
2018-08-04T09:42:57.714Z,46.00
2018-08-04T09:47:52.992Z,45.20
2018-08-04T09:52:48.051Z,47.50
2018-08-04T09:57:43.898Z,42.90
2018-08-04T10:02:39.211Z,41.30
2018-08-04T10:07:41.849Z,40.70
2018-08-04T10:12:45.019Z,40.20
2018-08-04T10:18:04.804Z,40.20
2018-08-04T10:23:09.242Z,39.20
2018-08-04T10:28:05.483Z,37.50
2018-08-04T10:33:01.095Z,37.90
2018-08-04T10:37:56.863Z,38.90
2018-08-04T10:43:00.424Z,38.70
2018-08-04T10:47:55.881Z,38.70
2018-08-04T10:52:51.268Z,38.10
2018-08-04T10:57:46.522Z,37.60
2018-08-04T11:02:41.441Z,37.50
2018-08-04T11:07:43.776Z,37.10
2018-08-04T11:17:41.772Z,39.10
2018-08-04T11:22:36.815Z,39.30
2018-08-04T11:27:32.849Z,38.00
2018-08-04T11:32:28.218Z,37.00
2018-08-04T11:37:24.241Z,36.90
2018-08-04T11:42:19.238Z,37.70
2018-08-04T11:47:14.627Z,37.90
2018-08-04T11:52:09.859Z,37.30
2018-08-04T11:57:07.887Z,37.20
2018-08-04T12:02:06.975Z,36.90
2018-08-04T12:07:04.861Z,36.40
2018-08-04T12:12:00.330Z,35.90
2018-08-04T12:16:55.574Z,35.80
2018-08-04T12:21:50.680Z,35.10
2018-08-04T12:26:45.847Z,34.80
2018-08-04T12:31:57.261Z,34.80
2018-08-04T12:37:00.294Z,34.50
2018-08-04T12:41:55.512Z,34.40
2018-08-04T12:46:51.023Z,34.50
2018-08-04T12:51:46.007Z,34.50
2018-08-04T13:08:06.085Z,34.70
2018-08-04T13:13:01.409Z,35.00
2018-08-04T13:17:57.454Z,34.30
2018-08-04T13:22:53.600Z,34.50
2018-08-04T13:32:44.075Z,34.40
2018-08-04T13:42:35.248Z,34.30
2018-08-04T13:47:30.369Z,34.40
2018-08-04T13:52:25.663Z,34.30
2018-08-04T13:57:20.784Z,34.30
2018-08-04T14:02:15.956Z,34.40
2018-08-04T14:07:11.190Z,34.20
2018-08-04T14:17:01.558Z,34.60
2018-08-04T14:21:57.309Z,34.80
2018-08-04T14:26:52.320Z,34.80
2018-08-04T14:31:48.006Z,34.80
2018-08-04T14:36:43.013Z,35.00
2018-08-04T14:41:38.597Z,34.80
2018-08-04T14:46:41.083Z,34.40
2018-08-04T14:51:36.794Z,34.40
2018-08-04T14:56:32.762Z,34.20
2018-08-04T15:01:28.106Z,34.10
2018-08-04T15:06:23.345Z,33.80
2018-08-04T15:11:26.164Z,33.50
2018-08-04T15:16:21.725Z,33.40
2018-08-04T15:21:17.035Z,33.00
2018-08-04T15:26:12.034Z,32.90
2018-08-04T15:31:07.161Z,32.30
2018-08-04T15:36:02.970Z,32.30
2018-08-04T15:40:58.240Z,31.90
2018-08-04T15:50:49.222Z,31.10
2018-08-04T15:55:44.380Z,30.80
2018-08-04T16:00:39.960Z,29.90
2018-08-04T16:05:35.422Z,24.90
2018-08-04T16:10:30.410Z,24.30
2018-08-04T16:20:21.430Z,24.80
2018-08-04T16:25:16.681Z,25.30
2018-08-04T16:30:12.038Z,25.70
2018-08-04T16:35:08.360Z,25.90
2018-08-04T16:40:04.698Z,26.00
2018-08-04T16:45:00.161Z,26.00
2018-08-04T16:49:55.750Z,26.10
2018-08-04T16:54:51.204Z,26.10
2018-08-04T16:59:46.400Z,26.00
2018-08-04T17:04:42.841Z,26.10
2018-08-04T17:20:25.144Z,26.20
2018-08-04T17:25:19.832Z,26.30
2018-08-04T17:35:08.921Z,26.20
2018-08-04T17:40:04.858Z,26.20
2018-08-04T17:44:59.896Z,26.20
2018-08-04T17:49:54.470Z,26.30
2018-08-04T17:54:56.956Z,26.20
2018-08-04T17:59:51.471Z,26.20
2018-08-04T18:04:46.117Z,26.10
2018-08-04T18:09:41.099Z,26.00
2018-08-04T18:14:36.501Z,25.90
2018-08-04T18:19:31.188Z,25.90
2018-08-04T18:29:20.304Z,25.50
2018-08-04T18:34:14.961Z,25.50
2018-08-04T18:39:10.425Z,25.40
2018-08-04T18:44:05.926Z,25.30
2018-08-04T18:54:24.261Z,25.20
2018-08-04T19:04:49.853Z,25.00
